createdAt,value
2019-02-20T00:00:51.935Z,37.83
2019-02-20T00:03:21.479Z,37.33
2019-02-20T00:05:50.889Z,39.17
2019-02-20T00:08:20.421Z,41.03
2019-02-20T00:10:49.818Z,38.93
2019-02-20T00:13:19.223Z,38.17
2019-02-20T00:15:48.753Z,39.77
2019-02-20T00:18:18.234Z,40.27
2019-02-20T00:20:47.617Z,41.43
2019-02-20T00:23:17.037Z,39.10
2019-02-20T00:25:46.556Z,39.97
2019-02-20T00:28:16.051Z,38.00
2019-02-20T00:30:45.466Z,41.20
2019-02-20T00:33:14.863Z,38.77
2019-02-20T00:35:44.378Z,37.10
2019-02-20T00:38:13.908Z,38.43
2019-02-20T00:40:43.313Z,35.30
2019-02-20T00:43:12.706Z,32.93
2019-02-20T00:46:04.244Z,34.53
2019-02-20T00:48:55.446Z,33.00
2019-02-20T00:51:33.387Z,33.77
2019-02-20T00:54:05.655Z,32.23
2019-02-20T00:56:35.048Z,33.83
2019-02-20T00:59:04.515Z,32.97
2019-02-20T01:01:34.005Z,32.27
2019-02-20T01:04:03.494Z,34.17
2019-02-20T01:06:32.938Z,34.13
2019-02-20T01:09:02.515Z,32.13
2019-02-20T01:11:31.991Z,32.77
2019-02-20T01:14:01.504Z,34.17
2019-02-20T01:16:30.927Z,34.27
2019-02-20T01:19:00.306Z,33.43
2019-02-20T01:21:30.069Z,34.07
2019-02-20T01:23:59.545Z,33.03
2019-02-20T01:26:28.951Z,33.47
2019-02-20T01:28:58.485Z,36.30
2019-02-20T01:31:27.881Z,34.00
2019-02-20T01:33:57.283Z,33.93
2019-02-20T01:36:26.803Z,33.47
2019-02-20T01:38:56.304Z,34.63
2019-02-20T01:41:25.702Z,34.60
2019-02-20T01:43:55.302Z,33.73
2019-02-20T01:46:24.909Z,33.97
2019-02-20T01:48:54.681Z,33.23
2019-02-20T01:51:24.107Z,36.33
2019-02-20T01:53:53.488Z,33.93
2019-02-20T01:56:23.001Z,35.30
2019-02-20T01:58:52.514Z,35.50
2019-02-20T02:01:21.934Z,34.27
2019-02-20T02:03:51.340Z,35.33
2019-02-20T02:06:21.120Z,34.37
2019-02-20T02:08:50.504Z,35.03
2019-02-20T02:11:20.004Z,35.17
2019-02-20T02:13:49.546Z,33.83
2019-02-20T02:16:18.951Z,31.53
2019-02-20T02:18:48.354Z,32.23
2019-02-20T02:21:18.063Z,32.40
2019-02-20T02:23:47.774Z,34.33
2019-02-20T02:26:17.128Z,32.00
2019-02-20T02:28:46.560Z,32.63
2019-02-20T02:31:16.050Z,32.03
2019-02-20T02:33:45.541Z,29.93
2019-02-20T02:36:14.989Z,27.67
2019-02-20T02:38:44.394Z,31.93
2019-02-20T02:41:13.866Z,28.80
2019-02-20T02:43:43.392Z,29.97
2019-02-20T02:46:12.946Z,30.43
2019-02-20T02:48:42.758Z,30.67
2019-02-20T02:51:12.206Z,31.70
2019-02-20T02:53:41.710Z,28.37
2019-02-20T02:56:11.190Z,27.37
2019-02-20T02:58:40.955Z,26.43
2019-02-20T03:01:10.321Z,27.37
2019-02-20T03:03:39.733Z,27.30
2019-02-20T03:06:09.266Z,28.57
2019-02-20T03:08:38.780Z,29.33
2019-02-20T03:11:08.172Z,28.10
2019-02-20T03:13:37.618Z,29.57
2019-02-20T03:16:07.128Z,28.67
2019-02-20T03:18:36.620Z,29.67
2019-02-20T03:21:06.088Z,30.40
2019-02-20T03:23:40.143Z,30.57
2019-02-20T03:26:06.666Z,31.63
2019-02-20T03:28:36.124Z,30.27
2019-02-20T03:31:05.610Z,32.27
2019-02-20T03:33:35.234Z,30.67
2019-02-20T03:36:04.693Z,30.93
2019-02-20T03:38:34.094Z,31.33
2019-02-20T03:41:03.583Z,33.30
2019-02-20T03:43:33.292Z,34.13
2019-02-20T03:46:02.686Z,34.57
2019-02-20T03:48:32.179Z,34.07
2019-02-20T03:51:01.903Z,30.97
2019-02-20T03:53:31.395Z,33.37
2019-02-20T03:56:01.595Z,34.40
2019-02-20T03:58:33.186Z,34.40
2019-02-20T04:01:02.554Z,33.93
2019-02-20T04:03:32.077Z,32.17
2019-02-20T04:06:01.694Z,35.83
2019-02-20T04:08:31.190Z,38.77
2019-02-20T04:11:00.644Z,39.23
2019-02-20T04:13:30.093Z,37.30
2019-02-20T04:15:59.608Z,42.57
2019-02-20T04:18:29.206Z,36.30
2019-02-20T04:20:58.666Z,35.40
2019-02-20T04:23:28.081Z,36.40
2019-02-20T04:25:57.611Z,35.67
2019-02-20T04:28:27.167Z,35.10
2019-02-20T04:30:56.576Z,36.30
2019-02-20T04:33:25.963Z,36.10
2019-02-20T04:35:55.533Z,35.73
2019-02-20T04:38:26.296Z,35.20
2019-02-20T04:40:55.694Z,36.87
2019-02-20T04:43:25.318Z,36.67
2019-02-20T04:45:54.959Z,36.07
2019-02-20T04:48:24.548Z,35.77
2019-02-20T04:50:54.245Z,35.33
2019-02-20T04:53:23.651Z,33.70
2019-02-20T04:55:53.145Z,33.97
2019-02-20T04:58:23.672Z,34.70
2019-02-20T05:00:53.156Z,31.37
2019-02-20T05:03:23.326Z,33.57
2019-02-20T05:05:53.119Z,32.97
2019-02-20T05:08:22.611Z,33.47
2019-02-20T05:10:52.027Z,41.23
2019-02-20T05:13:21.463Z,35.77
2019-02-20T05:15:50.929Z,34.70
2019-02-20T05:18:20.392Z,33.27
2019-02-20T05:20:50.044Z,32.37
2019-02-20T05:23:19.413Z,31.13
2019-02-20T05:25:48.937Z,30.33
2019-02-20T05:28:18.402Z,31.50
2019-02-20T05:30:47.914Z,33.63
2019-02-20T05:33:17.443Z,33.57
2019-02-20T05:35:46.971Z,34.40
2019-02-20T05:38:16.380Z,38.47
2019-02-20T05:40:47.156Z,40.23
2019-02-20T05:43:16.668Z,42.43
2019-02-20T05:45:46.064Z,40.93
2019-02-20T05:48:15.498Z,40.37
2019-02-20T05:50:45.460Z,42.40
2019-02-20T05:53:14.938Z,36.57
2019-02-20T05:55:44.333Z,38.07
2019-02-20T05:58:13.764Z,37.90
2019-02-20T06:00:43.253Z,35.43
2019-02-20T06:03:12.729Z,35.83
2019-02-20T06:05:42.299Z,31.43
2019-02-20T06:08:11.850Z,27.93
2019-02-20T06:10:41.178Z,29.37
2019-02-20T06:13:10.604Z,28.73
2019-02-20T06:15:40.092Z,28.17
2019-02-20T06:18:09.577Z,25.63
2019-02-20T06:20:39.030Z,23.60
2019-02-20T06:23:08.393Z,23.00
2019-02-20T06:25:37.876Z,24.53
2019-02-20T06:28:07.387Z,24.20
2019-02-20T06:30:36.774Z,24.93
2019-02-20T06:33:06.174Z,25.60
2019-02-20T06:35:35.658Z,26.60
2019-02-20T06:38:05.195Z,27.67
2019-02-20T06:40:34.592Z,29.60
2019-02-20T06:43:03.972Z,27.17
2019-02-20T06:45:33.439Z,27.17
2019-02-20T06:48:02.825Z,24.93
2019-02-20T06:50:32.490Z,26.23
2019-02-20T06:53:01.992Z,25.47
2019-02-20T06:55:31.382Z,25.50
2019-02-20T06:58:00.789Z,27.80
2019-02-20T07:00:30.259Z,26.37
2019-02-20T07:02:59.737Z,32.67
2019-02-20T07:05:40.579Z,27.40
2019-02-20T07:09:04.788Z,26.40
2019-02-20T07:12:05.050Z,27.33
2019-02-20T07:15:11.269Z,34.07
2019-02-20T07:18:43.286Z,25.80
2019-02-20T07:21:47.461Z,25.43
2019-02-20T07:24:46.584Z,26.53
2019-02-20T07:27:45.288Z,26.17
2019-02-20T07:30:14.720Z,27.63
2019-02-20T07:32:44.154Z,26.57
2019-02-20T07:35:13.712Z,27.47
2019-02-20T07:37:43.124Z,24.57
2019-02-20T07:40:13.691Z,25.97
2019-02-20T07:42:43.146Z,25.80
2019-02-20T07:45:14.805Z,26.97
2019-02-20T07:47:44.188Z,25.70
2019-02-20T07:50:16.537Z,24.50
2019-02-20T07:52:46.029Z,25.80
2019-02-20T07:55:15.514Z,23.67
2019-02-20T07:57:44.900Z,24.23
2019-02-20T08:00:15.370Z,25.00
2019-02-20T08:02:44.893Z,23.90
2019-02-20T08:05:14.485Z,24.43
2019-02-20T08:07:43.911Z,24.93
2019-02-20T08:10:14.589Z,25.33
2019-02-20T08:12:43.959Z,25.40
2019-02-20T08:15:13.821Z,23.33
2019-02-20T08:17:43.264Z,23.13
2019-02-20T08:20:12.909Z,24.33
2019-02-20T08:22:42.492Z,23.40
2019-02-20T08:25:11.972Z,24.33
2019-02-20T08:27:41.453Z,22.73
2019-02-20T08:30:13.923Z,23.87
2019-02-20T08:32:43.275Z,23.20
2019-02-20T08:35:13.354Z,23.17
2019-02-20T08:37:42.867Z,25.07
2019-02-20T08:40:14.524Z,22.33
2019-02-20T08:42:43.858Z,23.00
2019-02-20T08:45:13.542Z,22.57
2019-02-20T08:47:43.011Z,22.23
2019-02-20T08:50:13.788Z,21.67
2019-02-20T08:52:43.298Z,21.70
2019-02-20T08:55:12.908Z,21.10
2019-02-20T08:57:42.302Z,21.97
2019-02-20T09:00:13.669Z,20.60
2019-02-20T09:02:43.163Z,21.90
2019-02-20T09:05:12.614Z,19.90
2019-02-20T09:07:42.016Z,19.40
2019-02-20T09:10:11.565Z,20.07
2019-02-20T09:12:41.069Z,19.70
2019-02-20T09:15:11.249Z,18.83
2019-02-20T09:17:40.674Z,18.93
2019-02-20T09:20:10.447Z,17.47
2019-02-20T09:22:39.948Z,16.77
2019-02-20T09:25:19.236Z,18.17
2019-02-20T09:27:41.406Z,18.23
2019-02-20T09:30:12.971Z,17.60
2019-02-20T09:32:42.344Z,18.50
2019-02-20T09:35:11.931Z,8.80
2019-02-20T09:37:41.438Z,7.80
2019-02-20T09:40:13.354Z,7.03
2019-02-20T09:42:43.952Z,7.83
2019-02-20T09:45:13.523Z,7.60
2019-02-20T09:47:44.574Z,8.03
2019-02-20T09:50:14.084Z,7.53
2019-02-20T09:52:52.025Z,8.53
2019-02-20T09:55:14.663Z,7.93
2019-02-20T09:57:44.407Z,8.27
2019-02-20T10:00:15.045Z,7.20
2019-02-20T10:02:44.463Z,7.73
2019-02-20T10:05:13.954Z,8.17
2019-02-20T10:07:43.430Z,8.60
2019-02-20T10:10:12.852Z,8.03
2019-02-20T10:12:42.273Z,8.27
2019-02-20T10:15:12.629Z,7.70
2019-02-20T10:17:42.111Z,9.40
2019-02-20T10:20:11.683Z,8.00
2019-02-20T10:22:41.048Z,8.27
2019-02-20T10:25:10.732Z,8.47
2019-02-20T10:27:40.260Z,8.20
2019-02-20T10:30:12.931Z,8.20
2019-02-20T10:32:42.271Z,8.60
2019-02-20T10:35:12.176Z,9.90
2019-02-20T10:37:41.778Z,8.27
2019-02-20T10:40:11.196Z,8.70
2019-02-20T10:42:40.630Z,8.27
2019-02-20T10:45:10.429Z,7.57
2019-02-20T10:47:40.007Z,9.37
2019-02-20T10:50:10.128Z,9.83
2019-02-20T10:52:39.595Z,9.57
2019-02-20T10:55:09.094Z,8.67
2019-02-20T10:57:38.531Z,9.93
2019-02-20T11:00:23.390Z,11.40
2019-02-20T11:02:46.894Z,11.53
2019-02-20T11:05:16.683Z,9.00
2019-02-20T11:07:46.078Z,9.33
2019-02-20T11:10:15.671Z,8.73
2019-02-20T11:12:45.135Z,9.23
2019-02-20T11:15:14.508Z,10.27
2019-02-20T11:17:43.945Z,9.93
2019-02-20T11:20:13.859Z,10.63
2019-02-20T11:22:43.369Z,8.80
2019-02-20T11:25:13.072Z,9.97
2019-02-20T11:27:42.441Z,9.10
2019-02-20T11:30:14.904Z,9.93
2019-02-20T11:32:44.558Z,9.73
2019-02-20T11:35:14.048Z,9.97
2019-02-20T11:37:43.522Z,10.30
2019-02-20T11:40:13.041Z,9.43
2019-02-20T11:42:42.408Z,9.87
2019-02-20T11:45:11.949Z,9.53
2019-02-20T11:47:41.469Z,10.67
2019-02-20T11:50:11.507Z,9.83
2019-02-20T11:52:41.038Z,10.23
2019-02-20T11:55:10.624Z,9.30
2019-02-20T11:57:40.194Z,8.80
2019-02-20T12:00:10.601Z,8.47
2019-02-20T12:02:39.997Z,8.30
2019-02-20T12:05:09.554Z,8.60
2019-02-20T12:07:39.068Z,9.03
2019-02-20T12:10:08.866Z,9.03
2019-02-20T12:12:38.348Z,9.17
2019-02-20T12:15:08.203Z,10.67
2019-02-20T12:17:37.570Z,11.33
2019-02-20T12:20:07.636Z,9.30
2019-02-20T12:22:37.274Z,11.10
2019-02-20T12:25:06.779Z,8.93
2019-02-20T12:27:36.136Z,9.20
2019-02-20T12:30:06.585Z,10.07
2019-02-20T12:32:36.045Z,8.97
2019-02-20T12:35:05.691Z,9.27
2019-02-20T12:37:35.088Z,9.67
2019-02-20T12:40:05.167Z,10.10
2019-02-20T12:42:39.236Z,8.90
2019-02-20T12:45:08.758Z,8.70
2019-02-20T12:47:38.157Z,10.23
2019-02-20T12:50:08.234Z,10.77
2019-02-20T12:52:37.621Z,9.60
2019-02-20T12:55:08.646Z,9.30
2019-02-20T12:57:38.392Z,9.60
2019-02-20T13:00:08.126Z,10.00
2019-02-20T13:02:45.634Z,9.00
2019-02-20T13:05:19.844Z,8.70
2019-02-20T13:07:51.408Z,9.97
2019-02-20T13:10:22.688Z,9.90
2019-02-20T13:12:52.028Z,10.47
2019-02-20T13:15:21.550Z,10.70
2019-02-20T13:17:51.001Z,10.30
2019-02-20T13:20:21.319Z,10.57
2019-02-20T13:22:51.156Z,11.03
2019-02-20T13:25:21.098Z,11.40
2019-02-20T13:27:50.695Z,11.83
2019-02-20T13:30:20.380Z,11.30
2019-02-20T13:32:51.029Z,9.70
2019-02-20T13:35:20.682Z,9.47
2019-02-20T13:37:50.253Z,9.20
2019-02-20T13:40:19.721Z,9.40
2019-02-20T13:42:49.220Z,10.00
2019-02-20T13:45:18.646Z,9.03
2019-02-20T13:47:48.017Z,8.50
2019-02-20T13:50:17.966Z,9.50
2019-02-20T13:52:52.270Z,9.10
2019-02-20T13:55:18.874Z,8.50
2019-02-20T13:57:48.284Z,8.50
2019-02-20T14:00:17.762Z,8.30
2019-02-20T14:02:47.315Z,7.97
2019-02-20T14:05:16.824Z,8.23
2019-02-20T14:07:46.277Z,9.27
2019-02-20T14:10:15.751Z,8.97
2019-02-20T14:12:45.140Z,9.43
2019-02-20T14:15:14.782Z,9.83
2019-02-20T14:17:44.286Z,9.20
2019-02-20T14:20:13.999Z,9.77
2019-02-20T14:22:43.740Z,9.57
2019-02-20T14:25:13.241Z,10.30
2019-02-20T14:27:42.740Z,10.63
2019-02-20T14:30:12.338Z,10.50
2019-02-20T14:32:41.766Z,9.97
2019-02-20T14:35:11.844Z,10.80
2019-02-20T14:37:41.652Z,10.57
2019-02-20T14:40:11.088Z,12.63
2019-02-20T14:42:40.768Z,10.87
2019-02-20T14:45:11.361Z,10.67
2019-02-20T14:47:40.961Z,10.17
2019-02-20T14:50:10.688Z,11.73
2019-02-20T14:52:40.487Z,12.33
2019-02-20T14:55:09.900Z,11.10
2019-02-20T14:57:39.292Z,11.43
2019-02-20T15:00:11.015Z,12.40
2019-02-20T15:02:40.713Z,12.00
2019-02-20T15:05:11.992Z,12.57
2019-02-20T15:07:41.601Z,13.07
2019-02-20T15:10:12.226Z,12.13
2019-02-20T15:12:41.786Z,16.30
2019-02-20T15:15:11.308Z,14.33
2019-02-20T15:17:40.712Z,12.53
2019-02-20T15:20:11.197Z,12.83
2019-02-20T15:22:40.833Z,13.00
2019-02-20T15:25:10.438Z,13.00
2019-02-20T15:27:39.874Z,13.00
2019-02-20T15:30:12.332Z,12.57
2019-02-20T15:32:42.118Z,12.43
2019-02-20T15:35:11.933Z,12.50
2019-02-20T15:37:41.338Z,13.30
2019-02-20T15:40:11.242Z,12.33
2019-02-20T15:42:40.693Z,14.80
2019-02-20T15:45:11.181Z,13.93
2019-02-20T15:47:40.832Z,14.23
2019-02-20T15:50:11.434Z,12.50
2019-02-20T15:52:40.971Z,14.37
2019-02-20T15:55:11.510Z,12.83
2019-02-20T15:57:41.329Z,14.50
2019-02-20T16:00:12.598Z,14.43
2019-02-20T16:02:42.664Z,15.73
2019-02-20T16:05:12.859Z,15.77
2019-02-20T16:07:42.263Z,16.10
2019-02-20T16:10:11.919Z,16.93
2019-02-20T16:12:43.045Z,19.27
2019-02-20T16:15:14.675Z,25.60
2019-02-20T16:17:44.940Z,22.77
2019-02-20T16:20:15.040Z,16.53
2019-02-20T16:22:44.469Z,12.70
2019-02-20T16:25:14.689Z,12.60
2019-02-20T16:27:47.020Z,13.23
2019-02-20T16:30:15.448Z,10.00
2019-02-20T16:32:45.760Z,9.00
2019-02-20T16:35:15.522Z,10.50
2019-02-20T16:37:45.012Z,11.07
2019-02-20T16:40:14.775Z,9.90
2019-02-20T16:42:44.163Z,10.23
2019-02-20T16:45:22.023Z,8.97
2019-02-20T16:47:51.906Z,9.00
2019-02-20T16:50:21.346Z,9.47
2019-02-20T16:52:50.858Z,10.50
2019-02-20T16:55:22.449Z,9.60
2019-02-20T16:57:56.658Z,9.23
2019-02-20T17:00:23.429Z,9.40
2019-02-20T17:02:53.174Z,10.13
2019-02-20T17:05:22.557Z,9.90
2019-02-20T17:07:52.270Z,9.03
2019-02-20T17:10:21.765Z,9.33
2019-02-20T17:12:51.225Z,10.60
2019-02-20T17:15:20.729Z,18.70
2019-02-20T17:17:50.499Z,19.07
2019-02-20T17:20:20.017Z,12.97
2019-02-20T17:22:49.626Z,14.07
2019-02-20T17:25:20.088Z,11.83
2019-02-20T17:27:49.475Z,15.33
2019-02-20T17:30:19.105Z,12.33
2019-02-20T17:32:48.890Z,13.17
2019-02-20T17:35:18.494Z,11.77
2019-02-20T17:37:47.984Z,15.13
2019-02-20T17:40:17.467Z,14.93
2019-02-20T17:42:46.984Z,17.67
2019-02-20T17:45:16.549Z,18.77
2019-02-20T17:47:47.092Z,17.50
2019-02-20T17:50:16.735Z,17.80
2019-02-20T17:52:46.162Z,17.97
2019-02-20T17:55:15.641Z,17.87
2019-02-20T17:57:45.443Z,17.33
2019-02-20T18:00:15.847Z,17.07
2019-02-20T18:02:45.230Z,18.03
2019-02-20T18:05:14.903Z,17.97
2019-02-20T18:07:49.756Z,17.77
2019-02-20T18:10:15.805Z,18.77
2019-02-20T18:12:45.273Z,18.80
2019-02-20T18:15:15.989Z,16.23
2019-02-20T18:17:45.506Z,18.30
2019-02-20T18:20:15.116Z,16.80
2019-02-20T18:22:44.604Z,16.90
2019-02-20T18:25:14.098Z,16.90
2019-02-20T18:27:45.594Z,16.63
2019-02-20T18:30:15.789Z,16.50
2019-02-20T18:32:45.360Z,16.13
2019-02-20T18:35:14.748Z,16.97
2019-02-20T18:37:44.195Z,15.40
2019-02-20T18:40:14.878Z,16.63
2019-02-20T18:42:44.329Z,18.50
2019-02-20T18:45:13.975Z,18.63
2019-02-20T18:47:43.374Z,20.93
2019-02-20T18:50:13.209Z,21.70
2019-02-20T18:52:42.654Z,21.43
2019-02-20T18:55:12.174Z,29.23
2019-02-20T18:57:41.656Z,23.13
2019-02-20T19:00:13.667Z,24.37
2019-02-20T19:02:43.059Z,27.03
2019-02-20T19:05:12.685Z,28.30
2019-02-20T19:07:42.369Z,24.53
2019-02-20T19:10:15.681Z,21.83
2019-02-20T19:13:28.167Z,22.90
2019-02-20T19:16:36.015Z,21.53
2019-02-20T19:19:37.321Z,20.33
2019-02-20T19:22:47.453Z,22.20
2019-02-20T19:26:02.249Z,19.90
2019-02-20T19:28:50.144Z,20.07
2019-02-20T19:31:44.834Z,21.67
2019-02-20T19:34:48.822Z,19.27
2019-02-20T19:37:35.140Z,17.83
2019-02-20T19:41:03.657Z,19.20
2019-02-20T19:43:50.844Z,18.40
2019-02-20T19:46:54.952Z,20.00
2019-02-20T19:50:08.229Z,19.17
2019-02-20T19:53:05.551Z,18.57
2019-02-20T19:56:20.634Z,18.27
2019-02-20T19:59:19.036Z,17.97
2019-02-20T20:02:32.343Z,16.93
2019-02-20T20:05:40.798Z,18.37
2019-02-20T20:08:41.722Z,16.77
2019-02-20T20:11:54.169Z,17.87
2019-02-20T20:15:30.975Z,16.07
2019-02-20T20:18:45.669Z,16.70
2019-02-20T20:21:43.114Z,17.43
2019-02-20T20:25:02.971Z,17.10
2019-02-20T20:28:28.260Z,15.57
2019-02-20T20:31:32.581Z,15.27
2019-02-20T20:34:38.894Z,15.70
2019-02-20T20:38:04.119Z,13.47
2019-02-20T20:41:19.558Z,15.77
2019-02-20T20:44:13.012Z,15.93
2019-02-20T20:47:16.402Z,16.50
2019-02-20T20:50:16.930Z,15.70
2019-02-20T20:53:26.167Z,15.70
2019-02-20T20:56:32.064Z,17.83
2019-02-20T20:59:20.251Z,16.10
2019-02-20T21:02:35.436Z,15.73
2019-02-20T21:05:48.692Z,15.97
2019-02-20T21:08:51.114Z,17.00
2019-02-20T21:11:56.968Z,16.33
2019-02-20T21:14:41.716Z,16.63
2019-02-20T21:18:01.498Z,16.50
2019-02-20T21:20:55.840Z,15.50
2019-02-20T21:24:17.083Z,18.37
2019-02-20T21:27:04.929Z,17.73
2019-02-20T21:30:17.363Z,17.00
2019-02-20T21:33:19.162Z,16.63
2019-02-20T21:36:19.292Z,16.63
2019-02-20T21:39:25.212Z,16.80
2019-02-20T21:42:27.686Z,16.43
2019-02-20T21:45:09.194Z,17.43
2019-02-20T21:48:13.943Z,15.23
2019-02-20T21:51:33.615Z,15.67
2019-02-20T21:54:55.746Z,15.57
2019-02-20T21:57:36.195Z,15.40
2019-02-20T22:00:34.201Z,17.60
2019-02-20T22:03:34.845Z,16.27
2019-02-20T22:06:15.059Z,22.03
2019-02-20T22:09:15.060Z,16.33
2019-02-20T22:12:24.339Z,16.83
2019-02-20T22:15:40.328Z,16.17
2019-02-20T22:18:41.017Z,15.70
2019-02-20T22:22:01.962Z,15.40
2019-02-20T22:25:33.640Z,16.90
2019-02-20T22:28:30.771Z,16.20
2019-02-20T22:31:35.500Z,16.87
2019-02-20T22:34:38.676Z,16.50
2019-02-20T22:37:32.295Z,15.43
2019-02-20T22:40:31.285Z,16.13
2019-02-20T22:43:38.204Z,16.57
2019-02-20T22:46:33.848Z,16.20
2019-02-20T22:49:27.368Z,15.23
2019-02-20T22:52:29.360Z,16.20
2019-02-20T22:55:38.960Z,14.60
2019-02-20T22:58:22.207Z,16.63
2019-02-20T23:01:35.365Z,14.60
2019-02-20T23:04:31.341Z,13.90
2019-02-20T23:07:49.635Z,14.80
2019-02-20T23:11:01.659Z,13.30
2019-02-20T23:14:02.719Z,14.20
2019-02-20T23:16:32.269Z,12.37
2019-02-20T23:19:01.665Z,12.70
2019-02-20T23:21:31.192Z,13.60
2019-02-20T23:24:00.782Z,12.97
2019-02-20T23:26:30.165Z,12.43
2019-02-20T23:28:59.707Z,12.60
2019-02-20T23:31:29.209Z,12.93
2019-02-20T23:33:58.701Z,12.77
2019-02-20T23:36:28.142Z,12.47
2019-02-20T23:38:57.632Z,12.77
2019-02-20T23:41:27.017Z,13.57
2019-02-20T23:43:56.554Z,13.57
2019-02-20T23:46:26.021Z,13.10
2019-02-20T23:48:55.515Z,13.00
2019-02-20T23:51:24.958Z,13.37
2019-02-20T23:53:54.743Z,15.23
2019-02-20T23:56:24.242Z,12.77
2019-02-20T23:58:53.771Z,13.97
